sensor_id;sensor_type;location;lat;lon;timestamp;P1;durP1;ratioP1;P2;durP2;ratioP2
54271;SDS011;40184;53.362;5.216;2023-07-13T00:01:58;7.55;;;1.13;;
54271;SDS011;40184;53.362;5.216;2023-07-13T00:04:24;6.32;;;1.92;;
54271;SDS011;40184;53.362;5.216;2023-07-13T00:06:51;3.72;;;1.20;;
54271;SDS011;40184;53.362;5.216;2023-07-13T00:09:17;5.60;;;1.40;;
54271;SDS011;40184;53.362;5.216;2023-07-13T00:11:44;5.88;;;1.88;;
54271;SDS011;40184;53.362;5.216;2023-07-13T00:14:13;7.00;;;1.58;;
54271;SDS011;40184;53.362;5.216;2023-07-13T00:16:40;5.90;;;1.38;;
54271;SDS011;40184;53.362;5.216;2023-07-13T00:19:08;5.35;;;1.23;;
54271;SDS011;40184;53.362;5.216;2023-07-13T00:21:34;11.60;;;1.70;;
54271;SDS011;40184;53.362;5.216;2023-07-13T00:24:00;5.53;;;1.63;;
54271;SDS011;40184;53.362;5.216;2023-07-13T00:26:28;7.63;;;1.63;;
54271;SDS011;40184;53.362;5.216;2023-07-13T00:28:54;5.28;;;1.52;;
54271;SDS011;40184;53.362;5.216;2023-07-13T00:31:20;6.03;;;1.38;;
54271;SDS011;40184;53.362;5.216;2023-07-13T00:33:46;7.97;;;1.83;;
54271;SDS011;40184;53.362;5.216;2023-07-13T00:36:12;8.48;;;2.22;;
54271;SDS011;40184;53.362;5.216;2023-07-13T00:38:39;13.18;;;2.08;;
54271;SDS011;40184;53.362;5.216;2023-07-13T00:41:05;9.07;;;2.30;;
54271;SDS011;40184;53.362;5.216;2023-07-13T00:43:31;10.88;;;2.10;;
54271;SDS011;40184;53.362;5.216;2023-07-13T00:48:26;10.57;;;2.08;;
54271;SDS011;40184;53.362;5.216;2023-07-13T00:50:55;7.88;;;2.03;;
54271;SDS011;40184;53.362;5.216;2023-07-13T00:53:22;7.10;;;2.42;;
54271;SDS011;40184;53.362;5.216;2023-07-13T00:55:49;10.63;;;2.20;;
54271;SDS011;40184;53.362;5.216;2023-07-13T00:58:16;8.25;;;1.73;;
54271;SDS011;40184;53.362;5.216;2023-07-13T01:00:43;6.50;;;2.05;;
54271;SDS011;40184;53.362;5.216;2023-07-13T01:03:09;9.82;;;2.10;;
54271;SDS011;40184;53.362;5.216;2023-07-13T01:05:35;9.00;;;2.30;;
54271;SDS011;40184;53.362;5.216;2023-07-13T01:08:02;12.98;;;3.42;;
54271;SDS011;40184;53.362;5.216;2023-07-13T01:10:30;11.75;;;2.55;;
54271;SDS011;40184;53.362;5.216;2023-07-13T01:13:03;12.27;;;2.67;;
54271;SDS011;40184;53.362;5.216;2023-07-13T01:17:59;12.25;;;3.15;;
54271;SDS011;40184;53.362;5.216;2023-07-13T01:20:25;15.32;;;2.35;;
54271;SDS011;40184;53.362;5.216;2023-07-13T01:22:52;12.65;;;2.90;;
54271;SDS011;40184;53.362;5.216;2023-07-13T01:25:18;13.02;;;2.45;;
54271;SDS011;40184;53.362;5.216;2023-07-13T01:27:45;16.10;;;4.15;;
54271;SDS011;40184;53.362;5.216;2023-07-13T01:30:11;12.82;;;2.78;;
54271;SDS011;40184;53.362;5.216;2023-07-13T01:32:37;8.98;;;2.67;;
54271;SDS011;40184;53.362;5.216;2023-07-13T01:35:06;9.77;;;2.50;;
54271;SDS011;40184;53.362;5.216;2023-07-13T01:37:33;12.45;;;2.58;;
54271;SDS011;40184;53.362;5.216;2023-07-13T01:40:01;13.48;;;3.38;;
54271;SDS011;40184;53.362;5.216;2023-07-13T01:42:28;11.38;;;3.15;;
54271;SDS011;40184;53.362;5.216;2023-07-13T01:44:54;15.32;;;4.53;;
54271;SDS011;40184;53.362;5.216;2023-07-13T01:47:21;15.50;;;3.60;;
54271;SDS011;40184;53.362;5.216;2023-07-13T01:49:47;16.85;;;3.60;;
54271;SDS011;40184;53.362;5.216;2023-07-13T01:52:15;14.75;;;3.85;;
54271;SDS011;40184;53.362;5.216;2023-07-13T01:54:41;17.08;;;3.22;;
54271;SDS011;40184;53.362;5.216;2023-07-13T01:57:07;16.60;;;3.22;;
54271;SDS011;40184;53.362;5.216;2023-07-13T01:59:33;15.30;;;3.45;;
54271;SDS011;40184;53.362;5.216;2023-07-13T02:01:59;16.38;;;3.45;;
54271;SDS011;40184;53.362;5.216;2023-07-13T02:04:25;12.95;;;2.72;;
54271;SDS011;40184;53.362;5.216;2023-07-13T02:06:52;11.52;;;2.92;;
54271;SDS011;40184;53.362;5.216;2023-07-13T02:09:20;7.65;;;2.42;;
54271;SDS011;40184;53.362;5.216;2023-07-13T02:11:47;15.00;;;3.58;;
54271;SDS011;40184;53.362;5.216;2023-07-13T02:14:13;6.50;;;2.13;;
54271;SDS011;40184;53.362;5.216;2023-07-13T02:16:40;14.48;;;3.50;;
54271;SDS011;40184;53.362;5.216;2023-07-13T02:19:07;13.35;;;2.53;;
54271;SDS011;40184;53.362;5.216;2023-07-13T02:21:33;24.38;;;4.63;;
54271;SDS011;40184;53.362;5.216;2023-07-13T02:23:59;12.38;;;2.78;;
54271;SDS011;40184;53.362;5.216;2023-07-13T02:26:26;11.63;;;2.47;;
54271;SDS011;40184;53.362;5.216;2023-07-13T02:28:52;12.75;;;3.28;;
54271;SDS011;40184;53.362;5.216;2023-07-13T02:31:19;12.75;;;2.78;;
54271;SDS011;40184;53.362;5.216;2023-07-13T02:33:45;11.25;;;2.80;;
54271;SDS011;40184;53.362;5.216;2023-07-13T02:36:11;8.88;;;3.05;;
54271;SDS011;40184;53.362;5.216;2023-07-13T02:38:39;13.90;;;2.83;;
54271;SDS011;40184;53.362;5.216;2023-07-13T02:41:06;15.02;;;2.97;;
54271;SDS011;40184;53.362;5.216;2023-07-13T02:43:33;10.45;;;2.97;;
54271;SDS011;40184;53.362;5.216;2023-07-13T02:46:00;9.48;;;2.92;;
54271;SDS011;40184;53.362;5.216;2023-07-13T02:48:32;13.77;;;2.72;;
54271;SDS011;40184;53.362;5.216;2023-07-13T02:50:58;15.05;;;3.83;;
54271;SDS011;40184;53.362;5.216;2023-07-13T02:53:24;11.52;;;2.60;;
54271;SDS011;40184;53.362;5.216;2023-07-13T02:55:50;16.38;;;3.95;;
54271;SDS011;40184;53.362;5.216;2023-07-13T02:58:16;15.27;;;2.97;;
54271;SDS011;40184;53.362;5.216;2023-07-13T03:00:43;15.30;;;3.67;;
54271;SDS011;40184;53.362;5.216;2023-07-13T03:03:11;15.05;;;3.45;;
54271;SDS011;40184;53.362;5.216;2023-07-13T03:05:40;7.30;;;2.22;;
54271;SDS011;40184;53.362;5.216;2023-07-13T03:08:07;9.05;;;2.67;;
54271;SDS011;40184;53.362;5.216;2023-07-13T03:10:33;10.32;;;2.65;;
54271;SDS011;40184;53.362;5.216;2023-07-13T03:13:00;11.63;;;2.90;;
54271;SDS011;40184;53.362;5.216;2023-07-13T03:15:26;9.70;;;2.63;;
54271;SDS011;40184;53.362;5.216;2023-07-13T03:17:52;11.65;;;2.60;;
54271;SDS011;40184;53.362;5.216;2023-07-13T03:20:18;7.28;;;2.88;;
54271;SDS011;40184;53.362;5.216;2023-07-13T03:22:44;14.40;;;3.40;;
54271;SDS011;40184;53.362;5.216;2023-07-13T03:25:11;10.25;;;2.28;;
54271;SDS011;40184;53.362;5.216;2023-07-13T03:27:37;9.98;;;2.55;;
54271;SDS011;40184;53.362;5.216;2023-07-13T03:30:04;9.80;;;2.17;;
54271;SDS011;40184;53.362;5.216;2023-07-13T03:32:31;15.93;;;2.35;;
54271;SDS011;40184;53.362;5.216;2023-07-13T03:34:57;11.43;;;3.25;;
54271;SDS011;40184;53.362;5.216;2023-07-13T03:37:23;7.97;;;2.03;;
54271;SDS011;40184;53.362;5.216;2023-07-13T03:39:49;7.35;;;1.70;;
54271;SDS011;40184;53.362;5.216;2023-07-13T03:42:15;8.60;;;2.03;;
54271;SDS011;40184;53.362;5.216;2023-07-13T03:44:41;10.07;;;2.17;;
54271;SDS011;40184;53.362;5.216;2023-07-13T03:47:11;7.28;;;1.92;;
54271;SDS011;40184;53.362;5.216;2023-07-13T03:49:37;6.07;;;1.85;;
54271;SDS011;40184;53.362;5.216;2023-07-13T03:52:03;7.47;;;2.03;;
54271;SDS011;40184;53.362;5.216;2023-07-13T03:54:29;6.35;;;1.63;;
54271;SDS011;40184;53.362;5.216;2023-07-13T03:56:56;7.20;;;1.80;;
54271;SDS011;40184;53.362;5.216;2023-07-13T03:59:22;5.43;;;1.80;;
54271;SDS011;40184;53.362;5.216;2023-07-13T04:01:48;6.25;;;1.35;;
54271;SDS011;40184;53.362;5.216;2023-07-13T04:04:14;9.02;;;2.45;;
54271;SDS011;40184;53.362;5.216;2023-07-13T04:06:40;7.85;;;2.10;;
54271;SDS011;40184;53.362;5.216;2023-07-13T04:09:07;6.57;;;1.65;;
54271;SDS011;40184;53.362;5.216;2023-07-13T04:11:33;6.43;;;1.67;;
54271;SDS011;40184;53.362;5.216;2023-07-13T04:14:01;7.40;;;1.95;;
54271;SDS011;40184;53.362;5.216;2023-07-13T04:16:27;8.90;;;2.75;;
54271;SDS011;40184;53.362;5.216;2023-07-13T04:18:54;5.25;;;1.60;;
54271;SDS011;40184;53.362;5.216;2023-07-13T04:21:24;10.50;;;2.35;;
54271;SDS011;40184;53.362;5.216;2023-07-13T04:23:51;9.18;;;2.65;;
54271;SDS011;40184;53.362;5.216;2023-07-13T04:26:17;6.25;;;1.73;;
54271;SDS011;40184;53.362;5.216;2023-07-13T04:28:46;6.97;;;1.70;;
54271;SDS011;40184;53.362;5.216;2023-07-13T04:31:12;7.55;;;1.83;;
54271;SDS011;40184;53.362;5.216;2023-07-13T04:33:39;5.88;;;1.67;;
54271;SDS011;40184;53.362;5.216;2023-07-13T04:36:05;10.40;;;2.50;;
54271;SDS011;40184;53.362;5.216;2023-07-13T04:38:32;6.25;;;2.30;;
54271;SDS011;40184;53.362;5.216;2023-07-13T04:41:00;4.75;;;1.65;;
54271;SDS011;40184;53.362;5.216;2023-07-13T04:43:27;5.93;;;1.45;;
54271;SDS011;40184;53.362;5.216;2023-07-13T04:45:54;6.72;;;1.58;;
54271;SDS011;40184;53.362;5.216;2023-07-13T04:48:20;6.15;;;1.83;;
54271;SDS011;40184;53.362;5.216;2023-07-13T04:50:46;4.82;;;1.20;;
54271;SDS011;40184;53.362;5.216;2023-07-13T04:53:12;4.55;;;1.52;;
54271;SDS011;40184;53.362;5.216;2023-07-13T04:55:39;7.15;;;1.75;;
54271;SDS011;40184;53.362;5.216;2023-07-13T04:58:06;7.47;;;1.80;;
54271;SDS011;40184;53.362;5.216;2023-07-13T05:00:32;5.10;;;1.45;;
54271;SDS011;40184;53.362;5.216;2023-07-13T05:02:58;4.13;;;1.65;;
54271;SDS011;40184;53.362;5.216;2023-07-13T05:05:24;5.00;;;1.38;;
54271;SDS011;40184;53.362;5.216;2023-07-13T05:07:51;5.15;;;1.25;;
54271;SDS011;40184;53.362;5.216;2023-07-13T05:10:17;6.63;;;1.67;;
54271;SDS011;40184;53.362;5.216;2023-07-13T05:12:44;6.20;;;2.00;;
54271;SDS011;40184;53.362;5.216;2023-07-13T05:15:10;9.38;;;2.35;;
54271;SDS011;40184;53.362;5.216;2023-07-13T05:17:36;8.13;;;1.85;;
54271;SDS011;40184;53.362;5.216;2023-07-13T05:20:04;5.15;;;2.38;;
54271;SDS011;40184;53.362;5.216;2023-07-13T05:22:30;4.03;;;1.73;;
54271;SDS011;40184;53.362;5.216;2023-07-13T05:24:57;6.50;;;1.95;;
54271;SDS011;40184;53.362;5.216;2023-07-13T05:27:23;6.43;;;1.67;;
54271;SDS011;40184;53.362;5.216;2023-07-13T05:29:49;6.20;;;2.00;;
54271;SDS011;40184;53.362;5.216;2023-07-13T05:32:17;10.23;;;2.80;;
54271;SDS011;40184;53.362;5.216;2023-07-13T05:34:43;6.78;;;2.10;;
54271;SDS011;40184;53.362;5.216;2023-07-13T05:37:09;17.58;;;2.33;;
54271;SDS011;40184;53.362;5.216;2023-07-13T05:39:36;9.85;;;1.95;;
54271;SDS011;40184;53.362;5.216;2023-07-13T05:42:02;6.00;;;2.00;;
54271;SDS011;40184;53.362;5.216;2023-07-13T05:44:28;5.63;;;1.60;;
54271;SDS011;40184;53.362;5.216;2023-07-13T05:46:54;6.57;;;1.63;;
54271;SDS011;40184;53.362;5.216;2023-07-13T05:49:30;6.00;;;1.15;;
54271;SDS011;40184;53.362;5.216;2023-07-13T05:51:56;3.53;;;1.23;;
54271;SDS011;40184;53.362;5.216;2023-07-13T05:54:23;3.83;;;1.00;;
54271;SDS011;40184;53.362;5.216;2023-07-13T05:56:49;5.25;;;1.58;;
54271;SDS011;40184;53.362;5.216;2023-07-13T05:59:15;4.28;;;1.55;;
54271;SDS011;40184;53.362;5.216;2023-07-13T06:01:41;7.07;;;1.67;;
54271;SDS011;40184;53.362;5.216;2023-07-13T06:04:07;3.72;;;1.50;;
54271;SDS011;40184;53.362;5.216;2023-07-13T06:06:33;7.22;;;1.50;;
54271;SDS011;40184;53.362;5.216;2023-07-13T06:09:00;5.15;;;2.20;;
54271;SDS011;40184;53.362;5.216;2023-07-13T06:11:26;4.40;;;1.00;;
54271;SDS011;40184;53.362;5.216;2023-07-13T06:13:54;5.45;;;1.08;;
54271;SDS011;40184;53.362;5.216;2023-07-13T06:16:21;4.97;;;1.40;;
54271;SDS011;40184;53.362;5.216;2023-07-13T06:18:47;5.10;;;1.40;;
54271;SDS011;40184;53.362;5.216;2023-07-13T06:21:18;5.15;;;1.63;;
54271;SDS011;40184;53.362;5.216;2023-07-13T06:23:44;3.60;;;1.05;;
54271;SDS011;40184;53.362;5.216;2023-07-13T06:26:12;5.60;;;2.15;;
54271;SDS011;40184;53.362;5.216;2023-07-13T06:28:39;4.85;;;1.50;;
54271;SDS011;40184;53.362;5.216;2023-07-13T06:31:08;2.42;;;1.40;;
54271;SDS011;40184;53.362;5.216;2023-07-13T06:33:34;5.43;;;1.75;;
54271;SDS011;40184;53.362;5.216;2023-07-13T06:36:02;5.18;;;1.50;;
54271;SDS011;40184;53.362;5.216;2023-07-13T06:38:28;4.65;;;1.55;;
54271;SDS011;40184;53.362;5.216;2023-07-13T06:40:54;7.13;;;2.13;;
54271;SDS011;40184;53.362;5.216;2023-07-13T06:43:20;5.15;;;1.25;;
54271;SDS011;40184;53.362;5.216;2023-07-13T06:45:46;5.80;;;1.67;;
54271;SDS011;40184;53.362;5.216;2023-07-13T06:48:14;3.10;;;1.17;;
54271;SDS011;40184;53.362;5.216;2023-07-13T06:50:41;5.40;;;1.40;;
54271;SDS011;40184;53.362;5.216;2023-07-13T06:53:07;9.63;;;2.40;;
54271;SDS011;40184;53.362;5.216;2023-07-13T06:55:34;9.10;;;1.92;;
54271;SDS011;40184;53.362;5.216;2023-07-13T06:58:00;7.20;;;2.17;;
54271;SDS011;40184;53.362;5.216;2023-07-13T07:00:26;10.32;;;2.45;;
54271;SDS011;40184;53.362;5.216;2023-07-13T07:02:52;5.38;;;2.05;;
54271;SDS011;40184;53.362;5.216;2023-07-13T07:05:18;8.20;;;2.10;;
54271;SDS011;40184;53.362;5.216;2023-07-13T07:07:47;8.02;;;1.70;;
54271;SDS011;40184;53.362;5.216;2023-07-13T07:10:13;8.57;;;2.13;;
54271;SDS011;40184;53.362;5.216;2023-07-13T07:12:39;6.20;;;2.42;;
54271;SDS011;40184;53.362;5.216;2023-07-13T07:15:05;9.65;;;2.25;;
54271;SDS011;40184;53.362;5.216;2023-07-13T07:17:31;7.03;;;1.45;;
54271;SDS011;40184;53.362;5.216;2023-07-13T07:19:57;8.15;;;2.08;;
54271;SDS011;40184;53.362;5.216;2023-07-13T07:22:23;9.13;;;2.05;;
54271;SDS011;40184;53.362;5.216;2023-07-13T07:24:52;8.52;;;2.00;;
54271;SDS011;40184;53.362;5.216;2023-07-13T07:27:18;6.50;;;1.63;;
54271;SDS011;40184;53.362;5.216;2023-07-13T07:29:44;9.38;;;1.95;;
54271;SDS011;40184;53.362;5.216;2023-07-13T07:32:10;11.02;;;1.38;;
54271;SDS011;40184;53.362;5.216;2023-07-13T07:34:36;5.50;;;1.73;;
54271;SDS011;40184;53.362;5.216;2023-07-13T07:37:03;6.43;;;2.15;;
54271;SDS011;40184;53.362;5.216;2023-07-13T07:39:29;8.68;;;1.67;;
54271;SDS011;40184;53.362;5.216;2023-07-13T07:41:55;5.88;;;1.50;;
54271;SDS011;40184;53.362;5.216;2023-07-13T07:44:22;4.97;;;1.23;;
54271;SDS011;40184;53.362;5.216;2023-07-13T07:46:48;9.50;;;1.70;;
54271;SDS011;40184;53.362;5.216;2023-07-13T07:49:14;6.22;;;1.52;;
54271;SDS011;40184;53.362;5.216;2023-07-13T07:51:40;20.70;;;2.70;;
54271;SDS011;40184;53.362;5.216;2023-07-13T07:54:06;17.52;;;3.35;;
54271;SDS011;40184;53.362;5.216;2023-07-13T07:56:33;15.63;;;3.63;;
54271;SDS011;40184;53.362;5.216;2023-07-13T07:58:59;8.95;;;2.58;;
54271;SDS011;40184;53.362;5.216;2023-07-13T08:01:25;10.55;;;3.15;;
54271;SDS011;40184;53.362;5.216;2023-07-13T08:03:51;7.57;;;1.20;;
54271;SDS011;40184;53.362;5.216;2023-07-13T08:06:17;6.10;;;1.70;;
54271;SDS011;40184;53.362;5.216;2023-07-13T08:08:45;9.55;;;1.42;;
54271;SDS011;40184;53.362;5.216;2023-07-13T08:11:11;12.13;;;2.33;;
54271;SDS011;40184;53.362;5.216;2023-07-13T08:13:37;8.25;;;1.45;;
54271;SDS011;40184;53.362;5.216;2023-07-13T08:16:04;6.10;;;1.45;;
54271;SDS011;40184;53.362;5.216;2023-07-13T08:18:31;5.65;;;1.52;;
54271;SDS011;40184;53.362;5.216;2023-07-13T08:20:57;8.40;;;1.50;;
54271;SDS011;40184;53.362;5.216;2023-07-13T08:23:24;3.85;;;1.15;;
54271;SDS011;40184;53.362;5.216;2023-07-13T08:25:53;5.07;;;1.35;;
54271;SDS011;40184;53.362;5.216;2023-07-13T08:28:20;6.38;;;1.40;;
54271;SDS011;40184;53.362;5.216;2023-07-13T08:30:46;9.02;;;1.90;;
54271;SDS011;40184;53.362;5.216;2023-07-13T08:33:17;7.20;;;1.65;;
54271;SDS011;40184;53.362;5.216;2023-07-13T08:35:47;6.65;;;1.27;;
54271;SDS011;40184;53.362;5.216;2023-07-13T08:38:14;9.27;;;1.17;;
54271;SDS011;40184;53.362;5.216;2023-07-13T08:40:40;6.63;;;2.17;;
54271;SDS011;40184;53.362;5.216;2023-07-13T08:43:09;6.53;;;2.03;;
54271;SDS011;40184;53.362;5.216;2023-07-13T08:45:49;5.50;;;1.40;;
54271;SDS011;40184;53.362;5.216;2023-07-13T08:50:50;6.85;;;1.73;;
54271;SDS011;40184;53.362;5.216;2023-07-13T08:53:17;7.47;;;1.98;;
54271;SDS011;40184;53.362;5.216;2023-07-13T08:55:44;6.10;;;1.13;;
54271;SDS011;40184;53.362;5.216;2023-07-13T08:58:11;4.47;;;1.10;;
54271;SDS011;40184;53.362;5.216;2023-07-13T09:00:49;8.90;;;1.70;;
54271;SDS011;40184;53.362;5.216;2023-07-13T09:03:20;5.72;;;1.30;;
54271;SDS011;40184;53.362;5.216;2023-07-13T09:05:49;7.30;;;1.55;;
54271;SDS011;40184;53.362;5.216;2023-07-13T09:08:24;4.47;;;1.52;;
54271;SDS011;40184;53.362;5.216;2023-07-13T09:10:58;4.50;;;1.63;;
54271;SDS011;40184;53.362;5.216;2023-07-13T09:15:57;13.55;;;2.75;;
54271;SDS011;40184;53.362;5.216;2023-07-13T09:20:56;7.50;;;1.83;;
54271;SDS011;40184;53.362;5.216;2023-07-13T09:23:24;18.00;;;2.50;;
54271;SDS011;40184;53.362;5.216;2023-07-13T09:25:53;11.05;;;2.58;;
54271;SDS011;40184;53.362;5.216;2023-07-13T09:28:34;5.35;;;1.88;;
54271;SDS011;40184;53.362;5.216;2023-07-13T09:33:28;10.95;;;2.10;;
54271;SDS011;40184;53.362;5.216;2023-07-13T09:35:58;10.45;;;1.95;;
54271;SDS011;40184;53.362;5.216;2023-07-13T09:38:25;7.00;;;1.75;;
54271;SDS011;40184;53.362;5.216;2023-07-13T09:43:26;5.65;;;2.00;;
54271;SDS011;40184;53.362;5.216;2023-07-13T09:45:54;10.38;;;2.13;;
54271;SDS011;40184;53.362;5.216;2023-07-13T09:48:20;10.68;;;2.40;;
54271;SDS011;40184;53.362;5.216;2023-07-13T09:50:46;8.95;;;1.92;;
54271;SDS011;40184;53.362;5.216;2023-07-13T09:53:13;8.18;;;1.88;;
54271;SDS011;40184;53.362;5.216;2023-07-13T09:55:41;9.43;;;2.75;;
54271;SDS011;40184;53.362;5.216;2023-07-13T09:58:20;6.38;;;1.77;;
54271;SDS011;40184;53.362;5.216;2023-07-13T10:00:54;9.80;;;2.40;;
54271;SDS011;40184;53.362;5.216;2023-07-13T10:03:22;7.68;;;2.10;;
54271;SDS011;40184;53.362;5.216;2023-07-13T10:05:50;8.73;;;2.05;;
54271;SDS011;40184;53.362;5.216;2023-07-13T10:11:01;11.15;;;2.42;;
54271;SDS011;40184;53.362;5.216;2023-07-13T10:13:35;8.45;;;2.83;;
54271;SDS011;40184;53.362;5.216;2023-07-13T10:16:02;13.80;;;2.67;;
54271;SDS011;40184;53.362;5.216;2023-07-13T10:18:31;8.95;;;2.42;;
54271;SDS011;40184;53.362;5.216;2023-07-13T10:21:11;8.95;;;2.50;;
54271;SDS011;40184;53.362;5.216;2023-07-13T10:23:38;10.25;;;3.00;;
54271;SDS011;40184;53.362;5.216;2023-07-13T10:26:05;7.22;;;2.35;;
54271;SDS011;40184;53.362;5.216;2023-07-13T10:28:36;6.68;;;1.75;;
54271;SDS011;40184;53.362;5.216;2023-07-13T10:31:02;11.68;;;1.73;;
54271;SDS011;40184;53.362;5.216;2023-07-13T10:33:33;8.25;;;2.58;;
54271;SDS011;40184;53.362;5.216;2023-07-13T10:39:03;13.47;;;2.67;;
54271;SDS011;40184;53.362;5.216;2023-07-13T10:41:30;13.50;;;2.58;;
54271;SDS011;40184;53.362;5.216;2023-07-13T10:43:58;15.10;;;2.92;;
54271;SDS011;40184;53.362;5.216;2023-07-13T10:46:25;9.73;;;2.35;;
54271;SDS011;40184;53.362;5.216;2023-07-13T10:48:54;11.73;;;3.22;;
54271;SDS011;40184;53.362;5.216;2023-07-13T10:51:21;8.57;;;2.00;;
54271;SDS011;40184;53.362;5.216;2023-07-13T10:53:47;12.35;;;2.38;;
54271;SDS011;40184;53.362;5.216;2023-07-13T10:56:48;7.93;;;2.80;;
54271;SDS011;40184;53.362;5.216;2023-07-13T10:59:40;9.05;;;2.42;;
54271;SDS011;40184;53.362;5.216;2023-07-13T11:02:09;11.27;;;2.42;;
54271;SDS011;40184;53.362;5.216;2023-07-13T11:04:46;12.48;;;3.40;;
54271;SDS011;40184;53.362;5.216;2023-07-13T11:07:29;7.53;;;2.30;;
54271;SDS011;40184;53.362;5.216;2023-07-13T11:09:59;12.05;;;2.45;;
54271;SDS011;40184;53.362;5.216;2023-07-13T11:12:27;8.43;;;2.13;;
54271;SDS011;40184;53.362;5.216;2023-07-13T11:22:43;13.88;;;3.05;;
54271;SDS011;40184;53.362;5.216;2023-07-13T11:25:52;7.60;;;3.10;;
54271;SDS011;40184;53.362;5.216;2023-07-13T11:30:39;14.32;;;3.25;;
54271;SDS011;40184;53.362;5.216;2023-07-13T11:35:41;12.93;;;4.03;;
54271;SDS011;40184;53.362;5.216;2023-07-13T11:38:22;15.80;;;3.28;;
54271;SDS011;40184;53.362;5.216;2023-07-13T11:40:48;13.95;;;3.47;;
54271;SDS011;40184;53.362;5.216;2023-07-13T11:43:16;12.50;;;2.70;;
54271;SDS011;40184;53.362;5.216;2023-07-13T11:45:43;12.27;;;2.78;;
54271;SDS011;40184;53.362;5.216;2023-07-13T11:48:19;7.63;;;3.28;;
54271;SDS011;40184;53.362;5.216;2023-07-13T11:50:50;17.08;;;2.83;;
54271;SDS011;40184;53.362;5.216;2023-07-13T11:53:17;10.30;;;3.00;;
54271;SDS011;40184;53.362;5.216;2023-07-13T11:55:43;11.65;;;3.88;;
54271;SDS011;40184;53.362;5.216;2023-07-13T11:58:11;8.52;;;2.90;;
54271;SDS011;40184;53.362;5.216;2023-07-13T12:00:38;10.55;;;2.70;;
54271;SDS011;40184;53.362;5.216;2023-07-13T12:03:06;9.85;;;3.53;;
54271;SDS011;40184;53.362;5.216;2023-07-13T12:05:33;10.32;;;3.45;;
54271;SDS011;40184;53.362;5.216;2023-07-13T12:07:59;10.68;;;2.78;;
54271;SDS011;40184;53.362;5.216;2023-07-13T12:10:34;12.93;;;3.63;;
54271;SDS011;40184;53.362;5.216;2023-07-13T12:13:01;13.38;;;3.15;;
54271;SDS011;40184;53.362;5.216;2023-07-13T12:15:49;14.88;;;3.47;;
54271;SDS011;40184;53.362;5.216;2023-07-13T12:18:21;12.15;;;3.40;;
54271;SDS011;40184;53.362;5.216;2023-07-13T12:20:49;12.18;;;2.50;;
54271;SDS011;40184;53.362;5.216;2023-07-13T12:25:47;7.57;;;2.40;;
54271;SDS011;40184;53.362;5.216;2023-07-13T12:28:28;10.23;;;2.55;;
54271;SDS011;40184;53.362;5.216;2023-07-13T12:31:01;13.77;;;3.30;;
54271;SDS011;40184;53.362;5.216;2023-07-13T12:33:28;13.75;;;2.83;;
54271;SDS011;40184;53.362;5.216;2023-07-13T12:35:55;8.23;;;2.92;;
54271;SDS011;40184;53.362;5.216;2023-07-13T12:38:24;10.65;;;3.25;;
54271;SDS011;40184;53.362;5.216;2023-07-13T12:40:51;10.40;;;2.75;;
54271;SDS011;40184;53.362;5.216;2023-07-13T12:43:17;11.45;;;2.65;;
54271;SDS011;40184;53.362;5.216;2023-07-13T12:45:55;6.07;;;2.42;;
54271;SDS011;40184;53.362;5.216;2023-07-13T12:48:21;8.25;;;2.63;;
54271;SDS011;40184;53.362;5.216;2023-07-13T12:50:49;12.75;;;2.88;;
54271;SDS011;40184;53.362;5.216;2023-07-13T12:53:16;6.68;;;2.70;;
54271;SDS011;40184;53.362;5.216;2023-07-13T12:55:48;13.23;;;2.63;;
54271;SDS011;40184;53.362;5.216;2023-07-13T12:58:21;6.38;;;2.20;;
54271;SDS011;40184;53.362;5.216;2023-07-13T13:00:50;10.70;;;2.72;;
54271;SDS011;40184;53.362;5.216;2023-07-13T13:03:22;5.85;;;2.33;;
54271;SDS011;40184;53.362;5.216;2023-07-13T13:05:56;11.05;;;3.53;;
54271;SDS011;40184;53.362;5.216;2023-07-13T13:08:22;13.35;;;2.70;;
54271;SDS011;40184;53.362;5.216;2023-07-13T13:10:48;11.18;;;2.50;;
54271;SDS011;40184;53.362;5.216;2023-07-13T13:13:14;11.70;;;3.28;;
54271;SDS011;40184;53.362;5.216;2023-07-13T13:15:40;18.92;;;3.30;;
54271;SDS011;40184;53.362;5.216;2023-07-13T13:18:14;6.13;;;2.55;;
54271;SDS011;40184;53.362;5.216;2023-07-13T13:20:41;11.95;;;2.72;;
54271;SDS011;40184;53.362;5.216;2023-07-13T13:23:17;9.57;;;2.80;;
54271;SDS011;40184;53.362;5.216;2023-07-13T13:25:44;9.82;;;2.40;;
54271;SDS011;40184;53.362;5.216;2023-07-13T13:28:17;10.90;;;2.13;;
54271;SDS011;40184;53.362;5.216;2023-07-13T13:30:44;10.52;;;2.67;;
54271;SDS011;40184;53.362;5.216;2023-07-13T13:33:12;6.55;;;1.98;;
54271;SDS011;40184;53.362;5.216;2023-07-13T13:35:39;13.73;;;2.50;;
54271;SDS011;40184;53.362;5.216;2023-07-13T13:38:16;17.65;;;3.00;;
54271;SDS011;40184;53.362;5.216;2023-07-13T13:40:43;12.98;;;3.13;;
54271;SDS011;40184;53.362;5.216;2023-07-13T13:45:43;8.32;;;2.72;;
54271;SDS011;40184;53.362;5.216;2023-07-13T13:48:19;13.88;;;4.25;;
54271;SDS011;40184;53.362;5.216;2023-07-13T13:50:47;10.35;;;2.70;;
54271;SDS011;40184;53.362;5.216;2023-07-13T13:53:14;13.98;;;2.35;;
54271;SDS011;40184;53.362;5.216;2023-07-13T13:55:41;11.15;;;2.75;;
54271;SDS011;40184;53.362;5.216;2023-07-13T13:58:08;6.03;;;2.42;;
54271;SDS011;40184;53.362;5.216;2023-07-13T14:00:34;8.15;;;2.42;;
54271;SDS011;40184;53.362;5.216;2023-07-13T14:03:01;8.50;;;2.58;;
54271;SDS011;40184;53.362;5.216;2023-07-13T14:05:27;5.35;;;2.47;;
54271;SDS011;40184;53.362;5.216;2023-07-13T14:07:54;9.73;;;2.42;;
54271;SDS011;40184;53.362;5.216;2023-07-13T14:10:21;7.00;;;2.30;;
54271;SDS011;40184;53.362;5.216;2023-07-13T14:12:51;8.38;;;2.13;;
54271;SDS011;40184;53.362;5.216;2023-07-13T14:15:23;10.98;;;3.05;;
54271;SDS011;40184;53.362;5.216;2023-07-13T14:17:50;10.57;;;1.92;;
54271;SDS011;40184;53.362;5.216;2023-07-13T14:20:17;8.73;;;2.00;;
54271;SDS011;40184;53.362;5.216;2023-07-13T14:22:44;8.20;;;1.98;;
54271;SDS011;40184;53.362;5.216;2023-07-13T14:25:11;12.98;;;2.42;;
54271;SDS011;40184;53.362;5.216;2023-07-13T14:27:37;6.60;;;1.92;;
54271;SDS011;40184;53.362;5.216;2023-07-13T14:30:09;10.02;;;2.58;;
54271;SDS011;40184;53.362;5.216;2023-07-13T14:32:38;5.50;;;1.92;;
54271;SDS011;40184;53.362;5.216;2023-07-13T14:35:04;6.85;;;1.60;;
54271;SDS011;40184;53.362;5.216;2023-07-13T14:37:31;8.10;;;2.42;;
54271;SDS011;40184;53.362;5.216;2023-07-13T14:39:57;7.45;;;1.77;;
54271;SDS011;40184;53.362;5.216;2023-07-13T14:42:23;10.43;;;2.38;;
54271;SDS011;40184;53.362;5.216;2023-07-13T14:44:49;8.60;;;2.00;;
54271;SDS011;40184;53.362;5.216;2023-07-13T14:47:15;7.72;;;2.22;;
54271;SDS011;40184;53.362;5.216;2023-07-13T14:49:42;7.43;;;1.77;;
54271;SDS011;40184;53.362;5.216;2023-07-13T14:52:18;6.70;;;2.55;;
54271;SDS011;40184;53.362;5.216;2023-07-13T14:54:45;9.63;;;1.95;;
54271;SDS011;40184;53.362;5.216;2023-07-13T14:57:15;9.73;;;2.40;;
54271;SDS011;40184;53.362;5.216;2023-07-13T14:59:41;8.65;;;2.75;;
54271;SDS011;40184;53.362;5.216;2023-07-13T15:02:13;5.72;;;2.33;;
54271;SDS011;40184;53.362;5.216;2023-07-13T15:04:40;9.20;;;2.22;;
54271;SDS011;40184;53.362;5.216;2023-07-13T15:07:07;5.07;;;2.38;;
54271;SDS011;40184;53.362;5.216;2023-07-13T15:09:35;9.63;;;2.78;;
54271;SDS011;40184;53.362;5.216;2023-07-13T15:12:01;5.72;;;1.90;;
54271;SDS011;40184;53.362;5.216;2023-07-13T15:14:28;6.15;;;2.50;;
54271;SDS011;40184;53.362;5.216;2023-07-13T15:16:54;12.35;;;2.97;;
54271;SDS011;40184;53.362;5.216;2023-07-13T15:19:21;10.75;;;2.90;;
54271;SDS011;40184;53.362;5.216;2023-07-13T15:21:48;5.53;;;2.20;;
54271;SDS011;40184;53.362;5.216;2023-07-13T15:24:15;12.40;;;2.70;;
54271;SDS011;40184;53.362;5.216;2023-07-13T15:26:41;9.75;;;2.95;;
54271;SDS011;40184;53.362;5.216;2023-07-13T15:29:13;11.88;;;2.40;;